SCRIPT_RESULTS Banner
TAF for YSHR

by Dr. Günther Eichhorn

TAF for YSHR provided by aerobaticsweb.org
Current time: Wednesday, 5 Oct, 2022, 05:59 UTC
(This may take a minute, please be patient)


No TAF for YSHR, get TAF for YBHM, 12 nm southeast of YSHR
The most recent TAF forecast from YBHM, 12 nm southeast of YSHR in our system was generated at
2022/10/05 06:00
The forecast is:
YSHR#YBHM 2022/10/05 06:00
TAF YBHM 050520Z 0506/0518 11020KT 9999 -SHRA SCT020 SCT035



access provided by Dr. Guenther Eichhorn at aerobaticsweb.org